sensor_id;sensor_type;location;lat;lon;timestamp;P1;durP1;ratioP1;P2;durP2;ratioP2
33987;SDS011;37428;53.580;-1.666;2023-02-18T00:00:47;1.10;;;1.10;;
33987;SDS011;37428;53.580;-1.666;2023-02-18T00:03:51;1.42;;;1.33;;
33987;SDS011;37428;53.580;-1.666;2023-02-18T00:06:53;1.58;;;1.48;;
33987;SDS011;37428;53.580;-1.666;2023-02-18T00:09:55;1.60;;;1.50;;
33987;SDS011;37428;53.580;-1.666;2023-02-18T00:12:57;2.55;;;1.58;;
33987;SDS011;37428;53.580;-1.666;2023-02-18T00:16:01;1.40;;;1.30;;
33987;SDS011;37428;53.580;-1.666;2023-02-18T00:19:07;1.52;;;1.42;;
33987;SDS011;37428;53.580;-1.666;2023-02-18T00:22:12;0.73;;;0.73;;
33987;SDS011;37428;53.580;-1.666;2023-02-18T00:25:14;0.60;;;0.60;;
33987;SDS011;37428;53.580;-1.666;2023-02-18T00:28:16;0.75;;;0.75;;
33987;SDS011;37428;53.580;-1.666;2023-02-18T00:31:20;0.90;;;0.90;;
33987;SDS011;37428;53.580;-1.666;2023-02-18T00:34:25;1.17;;;1.10;;
33987;SDS011;37428;53.580;-1.666;2023-02-18T00:37:27;1.55;;;1.45;;
33987;SDS011;37428;53.580;-1.666;2023-02-18T00:40:29;1.30;;;1.20;;
33987;SDS011;37428;53.580;-1.666;2023-02-18T00:43:31;1.33;;;1.23;;
33987;SDS011;37428;53.580;-1.666;2023-02-18T00:46:34;2.05;;;1.30;;
33987;SDS011;37428;53.580;-1.666;2023-02-18T00:49:38;2.53;;;1.35;;
33987;SDS011;37428;53.580;-1.666;2023-02-18T00:52:40;1.52;;;1.00;;
33987;SDS011;37428;53.580;-1.666;2023-02-18T00:55:42;0.80;;;0.65;;
33987;SDS011;37428;53.580;-1.666;2023-02-18T00:58:47;1.08;;;0.70;;
33987;SDS011;37428;53.580;-1.666;2023-02-18T01:01:49;0.43;;;0.43;;
33987;SDS011;37428;53.580;-1.666;2023-02-18T01:04:53;0.68;;;0.45;;
33987;SDS011;37428;53.580;-1.666;2023-02-18T01:07:56;0.77;;;0.73;;
33987;SDS011;37428;53.580;-1.666;2023-02-18T01:10:58;1.50;;;1.20;;
33987;SDS011;37428;53.580;-1.666;2023-02-18T01:17:02;1.50;;;0.60;;
33987;SDS011;37428;53.580;-1.666;2023-02-18T01:20:07;0.40;;;0.40;;
33987;SDS011;37428;53.580;-1.666;2023-02-18T01:23:10;0.38;;;0.30;;
33987;SDS011;37428;53.580;-1.666;2023-02-18T01:26:13;0.43;;;0.35;;
33987;SDS011;37428;53.580;-1.666;2023-02-18T01:29:15;0.93;;;0.63;;
33987;SDS011;37428;53.580;-1.666;2023-02-18T01:32:17;0.30;;;0.20;;
33987;SDS011;37428;53.580;-1.666;2023-02-18T01:35:21;0.60;;;0.43;;
33987;SDS011;37428;53.580;-1.666;2023-02-18T01:38:23;1.20;;;0.60;;
33987;SDS011;37428;53.580;-1.666;2023-02-18T01:41:26;1.80;;;0.73;;
33987;SDS011;37428;53.580;-1.666;2023-02-18T01:44:28;3.75;;;1.23;;
33987;SDS011;37428;53.580;-1.666;2023-02-18T01:50:34;4.78;;;1.52;;
33987;SDS011;37428;53.580;-1.666;2023-02-18T01:53:42;3.80;;;0.90;;
33987;SDS011;37428;53.580;-1.666;2023-02-18T01:56:50;1.70;;;1.60;;
33987;SDS011;37428;53.580;-1.666;2023-02-18T01:59:56;2.00;;;1.65;;
33987;SDS011;37428;53.580;-1.666;2023-02-18T02:03:00;1.88;;;0.75;;
33987;SDS011;37428;53.580;-1.666;2023-02-18T02:06:08;1.13;;;0.88;;
33987;SDS011;37428;53.580;-1.666;2023-02-18T02:09:16;2.20;;;0.47;;
33987;SDS011;37428;53.580;-1.666;2023-02-18T02:12:28;1.85;;;0.28;;
33987;SDS011;37428;53.580;-1.666;2023-02-18T02:15:37;0.77;;;0.40;;
33987;SDS011;37428;53.580;-1.666;2023-02-18T02:18:49;0.75;;;0.75;;
33987;SDS011;37428;53.580;-1.666;2023-02-18T02:29:22;0.88;;;0.43;;
33987;SDS011;37428;53.580;-1.666;2023-02-18T02:33:00;1.65;;;0.47;;
33987;SDS011;37428;53.580;-1.666;2023-02-18T02:36:26;2.42;;;0.75;;
33987;SDS011;37428;53.580;-1.666;2023-02-18T02:39:33;2.50;;;0.85;;
33987;SDS011;37428;53.580;-1.666;2023-02-18T02:42:44;3.95;;;0.77;;
33987;SDS011;37428;53.580;-1.666;2023-02-18T02:45:55;1.05;;;0.30;;
33987;SDS011;37428;53.580;-1.666;2023-02-18T02:49:05;1.23;;;0.30;;
33987;SDS011;37428;53.580;-1.666;2023-02-18T02:52:16;1.33;;;0.38;;
33987;SDS011;37428;53.580;-1.666;2023-02-18T02:55:22;1.23;;;0.38;;
33987;SDS011;37428;53.580;-1.666;2023-02-18T02:58:24;0.30;;;0.20;;
33987;SDS011;37428;53.580;-1.666;2023-02-18T03:01:30;3.13;;;0.52;;
33987;SDS011;37428;53.580;-1.666;2023-02-18T03:04:46;4.68;;;0.30;;
33987;SDS011;37428;53.580;-1.666;2023-02-18T03:08:04;0.98;;;0.40;;
33987;SDS011;37428;53.580;-1.666;2023-02-18T03:11:14;0.77;;;0.35;;
33987;SDS011;37428;53.580;-1.666;2023-02-18T03:14:20;1.25;;;0.30;;
33987;SDS011;37428;53.580;-1.666;2023-02-18T03:17:29;2.78;;;0.60;;
33987;SDS011;37428;53.580;-1.666;2023-02-18T03:20:35;2.03;;;0.30;;
33987;SDS011;37428;53.580;-1.666;2023-02-18T03:23:43;2.50;;;0.35;;
33987;SDS011;37428;53.580;-1.666;2023-02-18T03:26:50;2.22;;;0.40;;
33987;SDS011;37428;53.580;-1.666;2023-02-18T03:29:57;1.35;;;0.30;;
33987;SDS011;37428;53.580;-1.666;2023-02-18T03:33:03;0.20;;;0.20;;
33987;SDS011;37428;53.580;-1.666;2023-02-18T03:36:08;1.08;;;0.15;;
33987;SDS011;37428;53.580;-1.666;2023-02-18T03:39:17;0.20;;;0.20;;
33987;SDS011;37428;53.580;-1.666;2023-02-18T03:42:24;1.85;;;0.25;;
33987;SDS011;37428;53.580;-1.666;2023-02-18T03:45:27;0.55;;;0.30;;
33987;SDS011;37428;53.580;-1.666;2023-02-18T03:48:29;0.15;;;0.13;;
33987;SDS011;37428;53.580;-1.666;2023-02-18T03:51:31;1.17;;;0.20;;
33987;SDS011;37428;53.580;-1.666;2023-02-18T03:54:35;1.83;;;0.50;;
33987;SDS011;37428;53.580;-1.666;2023-02-18T03:57:38;2.95;;;0.43;;
33987;SDS011;37428;53.580;-1.666;2023-02-18T04:00:40;0.70;;;0.47;;
33987;SDS011;37428;53.580;-1.666;2023-02-18T04:03:42;0.80;;;0.80;;
33987;SDS011;37428;53.580;-1.666;2023-02-18T04:06:45;1.17;;;0.75;;
33987;SDS011;37428;53.580;-1.666;2023-02-18T04:09:51;1.52;;;0.50;;
33987;SDS011;37428;53.580;-1.666;2023-02-18T04:12:53;1.85;;;0.40;;
33987;SDS011;37428;53.580;-1.666;2023-02-18T04:15:55;1.92;;;0.43;;
33987;SDS011;37428;53.580;-1.666;2023-02-18T04:18:58;1.80;;;0.40;;
33987;SDS011;37428;53.580;-1.666;2023-02-18T04:22:00;1.60;;;0.20;;
33987;SDS011;37428;53.580;-1.666;2023-02-18T04:25:04;3.13;;;0.70;;
33987;SDS011;37428;53.580;-1.666;2023-02-18T04:28:08;0.70;;;0.68;;
33987;SDS011;37428;53.580;-1.666;2023-02-18T04:31:12;1.85;;;0.95;;
33987;SDS011;37428;53.580;-1.666;2023-02-18T04:34:14;1.33;;;0.70;;
33987;SDS011;37428;53.580;-1.666;2023-02-18T04:37:17;1.95;;;0.95;;
33987;SDS011;37428;53.580;-1.666;2023-02-18T04:40:20;2.17;;;1.50;;
33987;SDS011;37428;53.580;-1.666;2023-02-18T04:43:24;1.42;;;0.90;;
33987;SDS011;37428;53.580;-1.666;2023-02-18T04:46:26;1.08;;;0.77;;
33987;SDS011;37428;53.580;-1.666;2023-02-18T04:49:29;3.90;;;0.90;;
33987;SDS011;37428;53.580;-1.666;2023-02-18T04:52:31;1.58;;;1.10;;
33987;SDS011;37428;53.580;-1.666;2023-02-18T04:55:34;1.67;;;0.70;;
33987;SDS011;37428;53.580;-1.666;2023-02-18T04:58:37;0.93;;;0.70;;
33987;SDS011;37428;53.580;-1.666;2023-02-18T05:01:39;2.05;;;1.58;;
33987;SDS011;37428;53.580;-1.666;2023-02-18T05:04:41;2.80;;;1.27;;
33987;SDS011;37428;53.580;-1.666;2023-02-18T05:07:43;1.38;;;1.27;;
33987;SDS011;37428;53.580;-1.666;2023-02-18T05:10:47;1.50;;;1.30;;
33987;SDS011;37428;53.580;-1.666;2023-02-18T05:13:49;1.70;;;1.48;;
33987;SDS011;37428;53.580;-1.666;2023-02-18T05:16:51;7.97;;;1.92;;
33987;SDS011;37428;53.580;-1.666;2023-02-18T05:19:53;4.68;;;1.70;;
33987;SDS011;37428;53.580;-1.666;2023-02-18T05:22:55;6.45;;;2.72;;
33987;SDS011;37428;53.580;-1.666;2023-02-18T05:25:59;4.40;;;2.90;;
33987;SDS011;37428;53.580;-1.666;2023-02-18T05:29:01;4.40;;;3.55;;
33987;SDS011;37428;53.580;-1.666;2023-02-18T05:32:04;2.90;;;2.42;;
33987;SDS011;37428;53.580;-1.666;2023-02-18T05:35:06;4.07;;;2.53;;
33987;SDS011;37428;53.580;-1.666;2023-02-18T05:38:09;2.17;;;1.98;;
33987;SDS011;37428;53.580;-1.666;2023-02-18T05:41:13;3.67;;;2.65;;
33987;SDS011;37428;53.580;-1.666;2023-02-18T05:44:15;4.68;;;2.55;;
33987;SDS011;37428;53.580;-1.666;2023-02-18T05:47:32;4.20;;;3.00;;
33987;SDS011;37428;53.580;-1.666;2023-02-18T05:50:34;2.50;;;1.83;;
33987;SDS011;37428;53.580;-1.666;2023-02-18T05:53:37;1.25;;;1.17;;
33987;SDS011;37428;53.580;-1.666;2023-02-18T05:56:41;1.75;;;1.10;;
33987;SDS011;37428;53.580;-1.666;2023-02-18T05:59:43;1.30;;;1.10;;
33987;SDS011;37428;53.580;-1.666;2023-02-18T06:02:45;0.90;;;0.57;;
33987;SDS011;37428;53.580;-1.666;2023-02-18T06:05:48;1.67;;;0.40;;
33987;SDS011;37428;53.580;-1.666;2023-02-18T06:08:50;2.17;;;0.80;;
33987;SDS011;37428;53.580;-1.666;2023-02-18T06:11:54;3.03;;;0.75;;
33987;SDS011;37428;53.580;-1.666;2023-02-18T06:14:56;2.72;;;1.25;;
33987;SDS011;37428;53.580;-1.666;2023-02-18T06:17:58;1.65;;;0.63;;
33987;SDS011;37428;53.580;-1.666;2023-02-18T06:21:01;6.15;;;1.00;;
33987;SDS011;37428;53.580;-1.666;2023-02-18T06:24:03;3.60;;;0.82;;
33987;SDS011;37428;53.580;-1.666;2023-02-18T06:27:07;4.15;;;0.80;;
33987;SDS011;37428;53.580;-1.666;2023-02-18T06:30:09;5.45;;;1.05;;
33987;SDS011;37428;53.580;-1.666;2023-02-18T06:33:12;8.80;;;1.58;;
33987;SDS011;37428;53.580;-1.666;2023-02-18T06:36:14;7.38;;;1.05;;
33987;SDS011;37428;53.580;-1.666;2023-02-18T06:39:16;6.82;;;1.77;;
33987;SDS011;37428;53.580;-1.666;2023-02-18T06:42:20;9.65;;;1.45;;
33987;SDS011;37428;53.580;-1.666;2023-02-18T06:45:22;5.93;;;1.30;;
33987;SDS011;37428;53.580;-1.666;2023-02-18T06:48:26;4.50;;;1.27;;
33987;SDS011;37428;53.580;-1.666;2023-02-18T06:51:28;7.18;;;1.70;;
33987;SDS011;37428;53.580;-1.666;2023-02-18T06:54:31;7.70;;;2.70;;
33987;SDS011;37428;53.580;-1.666;2023-02-18T06:57:35;11.95;;;1.27;;
33987;SDS011;37428;53.580;-1.666;2023-02-18T07:00:37;5.13;;;2.17;;
33987;SDS011;37428;53.580;-1.666;2023-02-18T07:03:39;17.10;;;1.98;;
33987;SDS011;37428;53.580;-1.666;2023-02-18T07:06:42;12.98;;;1.45;;
33987;SDS011;37428;53.580;-1.666;2023-02-18T07:09:44;32.20;;;18.63;;
33987;SDS011;37428;53.580;-1.666;2023-02-18T07:12:47;9.18;;;1.75;;
33987;SDS011;37428;53.580;-1.666;2023-02-18T07:15:50;10.55;;;2.33;;
33987;SDS011;37428;53.580;-1.666;2023-02-18T07:18:52;12.85;;;1.92;;
33987;SDS011;37428;53.580;-1.666;2023-02-18T07:21:54;8.68;;;3.03;;
33987;SDS011;37428;53.580;-1.666;2023-02-18T07:24:56;12.73;;;2.25;;
33987;SDS011;37428;53.580;-1.666;2023-02-18T07:28:02;8.65;;;1.95;;
33987;SDS011;37428;53.580;-1.666;2023-02-18T07:31:04;9.55;;;1.50;;
33987;SDS011;37428;53.580;-1.666;2023-02-18T07:34:07;8.55;;;1.77;;
33987;SDS011;37428;53.580;-1.666;2023-02-18T07:37:09;7.82;;;1.17;;
33987;SDS011;37428;53.580;-1.666;2023-02-18T07:40:25;6.63;;;1.13;;
33987;SDS011;37428;53.580;-1.666;2023-02-18T07:43:31;9.82;;;1.70;;
33987;SDS011;37428;53.580;-1.666;2023-02-18T07:46:35;11.63;;;2.00;;
33987;SDS011;37428;53.580;-1.666;2023-02-18T07:49:43;10.63;;;1.83;;
33987;SDS011;37428;53.580;-1.666;2023-02-18T07:52:45;9.20;;;1.30;;
33987;SDS011;37428;53.580;-1.666;2023-02-18T07:55:47;10.13;;;1.80;;
33987;SDS011;37428;53.580;-1.666;2023-02-18T07:58:51;16.73;;;10.02;;
33987;SDS011;37428;53.580;-1.666;2023-02-18T08:01:53;15.10;;;2.03;;
33987;SDS011;37428;53.580;-1.666;2023-02-18T08:04:55;9.02;;;2.17;;
33987;SDS011;37428;53.580;-1.666;2023-02-18T08:07:59;12.27;;;1.55;;
33987;SDS011;37428;53.580;-1.666;2023-02-18T08:11:02;8.65;;;1.55;;
33987;SDS011;37428;53.580;-1.666;2023-02-18T08:14:08;5.80;;;1.90;;
33987;SDS011;37428;53.580;-1.666;2023-02-18T08:17:12;9.43;;;1.65;;
33987;SDS011;37428;53.580;-1.666;2023-02-18T08:20:14;11.60;;;2.35;;
33987;SDS011;37428;53.580;-1.666;2023-02-18T08:23:19;16.45;;;3.47;;
33987;SDS011;37428;53.580;-1.666;2023-02-18T08:26:24;12.18;;;1.85;;
33987;SDS011;37428;53.580;-1.666;2023-02-18T08:29:28;11.00;;;2.05;;
33987;SDS011;37428;53.580;-1.666;2023-02-18T08:32:31;14.18;;;3.63;;
33987;SDS011;37428;53.580;-1.666;2023-02-18T08:35:33;14.10;;;3.63;;
33987;SDS011;37428;53.580;-1.666;2023-02-18T08:38:35;13.05;;;2.50;;
33987;SDS011;37428;53.580;-1.666;2023-02-18T08:41:37;18.80;;;2.65;;
33987;SDS011;37428;53.580;-1.666;2023-02-18T08:44:40;11.23;;;1.98;;
33987;SDS011;37428;53.580;-1.666;2023-02-18T08:47:43;14.13;;;2.15;;
33987;SDS011;37428;53.580;-1.666;2023-02-18T08:50:45;14.73;;;2.85;;
33987;SDS011;37428;53.580;-1.666;2023-02-18T08:53:47;8.93;;;3.35;;
33987;SDS011;37428;53.580;-1.666;2023-02-18T08:56:52;19.20;;;2.50;;
33987;SDS011;37428;53.580;-1.666;2023-02-18T08:59:58;13.05;;;1.88;;
33987;SDS011;37428;53.580;-1.666;2023-02-18T09:03:00;11.85;;;2.60;;
33987;SDS011;37428;53.580;-1.666;2023-02-18T09:09:05;12.18;;;2.47;;
33987;SDS011;37428;53.580;-1.666;2023-02-18T09:12:09;9.60;;;5.53;;
33987;SDS011;37428;53.580;-1.666;2023-02-18T09:15:13;14.75;;;2.13;;
33987;SDS011;37428;53.580;-1.666;2023-02-18T09:18:15;14.80;;;2.85;;
33987;SDS011;37428;53.580;-1.666;2023-02-18T09:21:17;15.80;;;2.55;;
33987;SDS011;37428;53.580;-1.666;2023-02-18T09:24:21;7.97;;;1.95;;
33987;SDS011;37428;53.580;-1.666;2023-02-18T09:27:25;13.88;;;2.55;;
33987;SDS011;37428;53.580;-1.666;2023-02-18T09:30:28;11.77;;;1.85;;
33987;SDS011;37428;53.580;-1.666;2023-02-18T09:33:31;10.10;;;2.03;;
33987;SDS011;37428;53.580;-1.666;2023-02-18T09:36:37;10.88;;;1.83;;
33987;SDS011;37428;53.580;-1.666;2023-02-18T09:39:39;9.43;;;2.15;;
33987;SDS011;37428;53.580;-1.666;2023-02-18T09:42:41;14.32;;;2.80;;
33987;SDS011;37428;53.580;-1.666;2023-02-18T09:45:45;9.07;;;1.80;;
33987;SDS011;37428;53.580;-1.666;2023-02-18T09:48:48;14.43;;;1.98;;
33987;SDS011;37428;53.580;-1.666;2023-02-18T09:51:51;10.60;;;2.17;;
33987;SDS011;37428;53.580;-1.666;2023-02-18T09:54:54;11.25;;;1.33;;
33987;SDS011;37428;53.580;-1.666;2023-02-18T09:57:58;9.48;;;1.42;;
33987;SDS011;37428;53.580;-1.666;2023-02-18T10:01:04;9.43;;;2.05;;
33987;SDS011;37428;53.580;-1.666;2023-02-18T10:04:14;11.15;;;2.50;;
33987;SDS011;37428;53.580;-1.666;2023-02-18T10:07:20;5.30;;;1.80;;
33987;SDS011;37428;53.580;-1.666;2023-02-18T10:10:29;10.23;;;1.45;;
33987;SDS011;37428;53.580;-1.666;2023-02-18T10:13:37;7.18;;;2.05;;
33987;SDS011;37428;53.580;-1.666;2023-02-18T10:16:42;8.73;;;3.65;;
33987;SDS011;37428;53.580;-1.666;2023-02-18T10:19:46;10.45;;;2.03;;
33987;SDS011;37428;53.580;-1.666;2023-02-18T10:22:49;6.30;;;1.42;;
33987;SDS011;37428;53.580;-1.666;2023-02-18T10:25:53;8.20;;;1.92;;
33987;SDS011;37428;53.580;-1.666;2023-02-18T10:28:57;6.38;;;1.10;;
33987;SDS011;37428;53.580;-1.666;2023-02-18T10:32:03;10.15;;;1.60;;
33987;SDS011;37428;53.580;-1.666;2023-02-18T10:35:14;7.45;;;1.70;;
33987;SDS011;37428;53.580;-1.666;2023-02-18T10:38:22;5.85;;;1.52;;
33987;SDS011;37428;53.580;-1.666;2023-02-18T10:41:35;6.95;;;1.42;;
33987;SDS011;37428;53.580;-1.666;2023-02-18T10:44:50;14.10;;;2.25;;
33987;SDS011;37428;53.580;-1.666;2023-02-18T10:48:03;8.73;;;1.40;;
33987;SDS011;37428;53.580;-1.666;2023-02-18T10:51:22;6.22;;;1.50;;
33987;SDS011;37428;53.580;-1.666;2023-02-18T10:54:27;6.22;;;1.17;;
33987;SDS011;37428;53.580;-1.666;2023-02-18T10:57:51;8.27;;;1.55;;
33987;SDS011;37428;53.580;-1.666;2023-02-18T11:00:56;7.25;;;1.40;;
33987;SDS011;37428;53.580;-1.666;2023-02-18T11:04:06;8.68;;;2.75;;
33987;SDS011;37428;53.580;-1.666;2023-02-18T11:07:13;5.65;;;1.27;;
33987;SDS011;37428;53.580;-1.666;2023-02-18T11:10:17;4.53;;;1.02;;
33987;SDS011;37428;53.580;-1.666;2023-02-18T11:13:24;3.75;;;1.02;;
33987;SDS011;37428;53.580;-1.666;2023-02-18T11:16:35;7.95;;;1.20;;
33987;SDS011;37428;53.580;-1.666;2023-02-18T11:19:40;4.88;;;0.82;;
33987;SDS011;37428;53.580;-1.666;2023-02-18T11:22:42;7.70;;;1.88;;
33987;SDS011;37428;53.580;-1.666;2023-02-18T11:25:55;3.13;;;1.30;;
33987;SDS011;37428;53.580;-1.666;2023-02-18T11:29:02;7.85;;;1.38;;
33987;SDS011;37428;53.580;-1.666;2023-02-18T11:32:09;12.32;;;1.45;;
33987;SDS011;37428;53.580;-1.666;2023-02-18T11:35:16;3.03;;;0.70;;
33987;SDS011;37428;53.580;-1.666;2023-02-18T11:38:22;7.63;;;1.80;;
33987;SDS011;37428;53.580;-1.666;2023-02-18T11:41:31;4.88;;;1.02;;
33987;SDS011;37428;53.580;-1.666;2023-02-18T11:44:36;5.20;;;1.30;;
33987;SDS011;37428;53.580;-1.666;2023-02-18T11:47:40;5.60;;;0.90;;
33987;SDS011;37428;53.580;-1.666;2023-02-18T11:50:44;10.15;;;1.25;;
33987;SDS011;37428;53.580;-1.666;2023-02-18T11:53:58;5.93;;;1.10;;
33987;SDS011;37428;53.580;-1.666;2023-02-18T11:57:02;4.35;;;0.93;;
33987;SDS011;37428;53.580;-1.666;2023-02-18T12:00:14;4.20;;;0.73;;
33987;SDS011;37428;53.580;-1.666;2023-02-18T12:03:26;6.63;;;0.98;;
33987;SDS011;37428;53.580;-1.666;2023-02-18T12:09:41;5.03;;;1.00;;
33987;SDS011;37428;53.580;-1.666;2023-02-18T12:12:49;4.05;;;1.00;;
33987;SDS011;37428;53.580;-1.666;2023-02-18T12:15:57;3.72;;;0.70;;
33987;SDS011;37428;53.580;-1.666;2023-02-18T12:22:58;6.07;;;0.88;;
33987;SDS011;37428;53.580;-1.666;2023-02-18T12:26:13;6.65;;;0.90;;
33987;SDS011;37428;53.580;-1.666;2023-02-18T12:29:28;3.65;;;1.30;;
33987;SDS011;37428;53.580;-1.666;2023-02-18T12:32:45;5.90;;;1.33;;
33987;SDS011;37428;53.580;-1.666;2023-02-18T12:35:55;6.47;;;0.90;;
33987;SDS011;37428;53.580;-1.666;2023-02-18T12:39:11;8.50;;;1.55;;
33987;SDS011;37428;53.580;-1.666;2023-02-18T12:42:32;4.50;;;0.90;;
33987;SDS011;37428;53.580;-1.666;2023-02-18T12:45:52;8.23;;;1.00;;
33987;SDS011;37428;53.580;-1.666;2023-02-18T12:49:05;3.55;;;1.88;;
33987;SDS011;37428;53.580;-1.666;2023-02-18T12:52:23;6.88;;;1.40;;
33987;SDS011;37428;53.580;-1.666;2023-02-18T12:55:37;4.93;;;1.10;;
33987;SDS011;37428;53.580;-1.666;2023-02-18T12:58:54;7.78;;;1.30;;
33987;SDS011;37428;53.580;-1.666;2023-02-18T13:02:01;5.15;;;1.45;;
33987;SDS011;37428;53.580;-1.666;2023-02-18T13:05:23;6.60;;;1.17;;
33987;SDS011;37428;53.580;-1.666;2023-02-18T13:08:34;4.25;;;1.00;;
33987;SDS011;37428;53.580;-1.666;2023-02-18T13:11:49;4.50;;;1.38;;
33987;SDS011;37428;53.580;-1.666;2023-02-18T13:15:01;5.55;;;1.38;;
33987;SDS011;37428;53.580;-1.666;2023-02-18T13:18:08;7.63;;;1.30;;
33987;SDS011;37428;53.580;-1.666;2023-02-18T13:21:14;6.60;;;1.52;;
33987;SDS011;37428;53.580;-1.666;2023-02-18T13:24:19;4.68;;;1.00;;
33987;SDS011;37428;53.580;-1.666;2023-02-18T13:27:29;3.83;;;1.00;;
33987;SDS011;37428;53.580;-1.666;2023-02-18T13:30:38;5.30;;;1.58;;
33987;SDS011;37428;53.580;-1.666;2023-02-18T13:33:58;5.07;;;1.13;;
33987;SDS011;37428;53.580;-1.666;2023-02-18T13:37:08;5.70;;;1.08;;
33987;SDS011;37428;53.580;-1.666;2023-02-18T13:40:17;4.32;;;1.05;;
33987;SDS011;37428;53.580;-1.666;2023-02-18T13:43:29;7.40;;;1.10;;
33987;SDS011;37428;53.580;-1.666;2023-02-18T13:46:34;6.80;;;1.02;;
33987;SDS011;37428;53.580;-1.666;2023-02-18T13:49:48;3.60;;;0.82;;
33987;SDS011;37428;53.580;-1.666;2023-02-18T13:53:10;5.65;;;1.10;;
33987;SDS011;37428;53.580;-1.666;2023-02-18T13:56:43;6.85;;;1.15;;
33987;SDS011;37428;53.580;-1.666;2023-02-18T13:59:53;6.32;;;1.13;;
33987;SDS011;37428;53.580;-1.666;2023-02-18T14:02:58;5.65;;;1.08;;
33987;SDS011;37428;53.580;-1.666;2023-02-18T14:06:16;3.58;;;1.00;;
33987;SDS011;37428;53.580;-1.666;2023-02-18T14:09:34;5.85;;;0.90;;
33987;SDS011;37428;53.580;-1.666;2023-02-18T14:12:38;4.78;;;1.20;;
33987;SDS011;37428;53.580;-1.666;2023-02-18T14:15:51;4.63;;;0.80;;
33987;SDS011;37428;53.580;-1.666;2023-02-18T14:18:59;6.50;;;1.10;;
33987;SDS011;37428;53.580;-1.666;2023-02-18T14:22:26;7.06;;;0.89;;
33987;SDS011;37428;53.580;-1.666;2023-02-18T14:25:34;6.95;;;1.50;;
33987;SDS011;37428;53.580;-1.666;2023-02-18T14:28:39;8.00;;;1.95;;
33987;SDS011;37428;53.580;-1.666;2023-02-18T14:31:48;5.32;;;1.38;;
33987;SDS011;37428;53.580;-1.666;2023-02-18T14:35:03;4.93;;;1.05;;
33987;SDS011;37428;53.580;-1.666;2023-02-18T14:38:25;5.60;;;1.30;;
33987;SDS011;37428;53.580;-1.666;2023-02-18T14:41:39;5.90;;;1.10;;
33987;SDS011;37428;53.580;-1.666;2023-02-18T14:44:52;6.53;;;1.27;;
33987;SDS011;37428;53.580;-1.666;2023-02-18T14:48:16;6.90;;;1.63;;
33987;SDS011;37428;53.580;-1.666;2023-02-18T14:51:34;9.65;;;1.58;;
33987;SDS011;37428;53.580;-1.666;2023-02-18T14:57:42;7.97;;;1.45;;
33987;SDS011;37428;53.580;-1.666;2023-02-18T15:00:48;6.85;;;1.20;;
33987;SDS011;37428;53.580;-1.666;2023-02-18T15:03:52;6.72;;;1.55;;
33987;SDS011;37428;53.580;-1.666;2023-02-18T15:07:02;8.30;;;1.77;;
33987;SDS011;37428;53.580;-1.666;2023-02-18T15:10:29;9.18;;;1.75;;
33987;SDS011;37428;53.580;-1.666;2023-02-18T15:13:39;12.70;;;1.58;;
33987;SDS011;37428;53.580;-1.666;2023-02-18T15:16:46;4.50;;;1.02;;
33987;SDS011;37428;53.580;-1.666;2023-02-18T15:19:51;7.20;;;1.45;;
33987;SDS011;37428;53.580;-1.666;2023-02-18T15:22:55;8.07;;;1.27;;
33987;SDS011;37428;53.580;-1.666;2023-02-18T15:25:58;5.13;;;1.05;;
33987;SDS011;37428;53.580;-1.666;2023-02-18T15:29:17;5.47;;;1.10;;
33987;SDS011;37428;53.580;-1.666;2023-02-18T15:32:20;5.63;;;1.63;;
33987;SDS011;37428;53.580;-1.666;2023-02-18T15:35:28;6.20;;;1.20;;
33987;SDS011;37428;53.580;-1.666;2023-02-18T15:38:32;7.10;;;1.85;;
33987;SDS011;37428;53.580;-1.666;2023-02-18T15:41:38;8.73;;;1.40;;
33987;SDS011;37428;53.580;-1.666;2023-02-18T15:44:44;7.95;;;1.27;;
33987;SDS011;37428;53.580;-1.666;2023-02-18T15:47:48;6.88;;;1.83;;
33987;SDS011;37428;53.580;-1.666;2023-02-18T15:50:55;4.90;;;1.52;;
33987;SDS011;37428;53.580;-1.666;2023-02-18T15:53:58;9.25;;;1.35;;
33987;SDS011;37428;53.580;-1.666;2023-02-18T15:57:03;7.50;;;2.75;;
33987;SDS011;37428;53.580;-1.666;2023-02-18T16:00:11;11.55;;;3.95;;
33987;SDS011;37428;53.580;-1.666;2023-02-18T16:03:19;11.82;;;2.75;;
33987;SDS011;37428;53.580;-1.666;2023-02-18T16:09:49;6.55;;;2.10;;
33987;SDS011;37428;53.580;-1.666;2023-02-18T16:13:10;7.35;;;1.30;;
33987;SDS011;37428;53.580;-1.666;2023-02-18T16:16:26;7.50;;;1.90;;
33987;SDS011;37428;53.580;-1.666;2023-02-18T16:19:30;5.97;;;1.20;;
33987;SDS011;37428;53.580;-1.666;2023-02-18T16:22:35;12.73;;;2.92;;
33987;SDS011;37428;53.580;-1.666;2023-02-18T16:25:44;8.80;;;2.58;;
33987;SDS011;37428;53.580;-1.666;2023-02-18T16:28:49;6.93;;;3.00;;
33987;SDS011;37428;53.580;-1.666;2023-02-18T16:31:53;10.85;;;3.78;;
33987;SDS011;37428;53.580;-1.666;2023-02-18T16:34:55;8.98;;;2.28;;
33987;SDS011;37428;53.580;-1.666;2023-02-18T16:37:58;6.88;;;1.40;;
33987;SDS011;37428;53.580;-1.666;2023-02-18T16:41:01;5.47;;;1.98;;
33987;SDS011;37428;53.580;-1.666;2023-02-18T16:44:07;7.45;;;1.50;;
33987;SDS011;37428;53.580;-1.666;2023-02-18T16:47:15;6.13;;;1.17;;
33987;SDS011;37428;53.580;-1.666;2023-02-18T16:50:19;8.77;;;2.00;;
33987;SDS011;37428;53.580;-1.666;2023-02-18T16:53:24;6.80;;;1.00;;
33987;SDS011;37428;53.580;-1.666;2023-02-18T16:56:28;8.32;;;1.90;;
33987;SDS011;37428;53.580;-1.666;2023-02-18T16:59:32;9.75;;;1.70;;
33987;SDS011;37428;53.580;-1.666;2023-02-18T17:02:34;6.85;;;1.70;;
33987;SDS011;37428;53.580;-1.666;2023-02-18T17:05:37;5.32;;;1.33;;
33987;SDS011;37428;53.580;-1.666;2023-02-18T17:08:41;8.18;;;1.50;;
33987;SDS011;37428;53.580;-1.666;2023-02-18T17:11:45;6.55;;;1.70;;
33987;SDS011;37428;53.580;-1.666;2023-02-18T17:14:48;9.38;;;2.03;;
33987;SDS011;37428;53.580;-1.666;2023-02-18T17:17:51;4.60;;;1.02;;
33987;SDS011;37428;53.580;-1.666;2023-02-18T17:20:53;7.95;;;1.60;;
33987;SDS011;37428;53.580;-1.666;2023-02-18T17:23:58;6.50;;;1.27;;
33987;SDS011;37428;53.580;-1.666;2023-02-18T17:27:01;6.50;;;1.58;;
33987;SDS011;37428;53.580;-1.666;2023-02-18T17:30:03;5.68;;;1.92;;
33987;SDS011;37428;53.580;-1.666;2023-02-18T17:33:06;5.63;;;1.83;;
33987;SDS011;37428;53.580;-1.666;2023-02-18T17:36:12;5.13;;;1.67;;
33987;SDS011;37428;53.580;-1.666;2023-02-18T17:39:15;5.65;;;1.20;;
33987;SDS011;37428;53.580;-1.666;2023-02-18T17:42:18;5.05;;;1.23;;
33987;SDS011;37428;53.580;-1.666;2023-02-18T17:45:23;3.55;;;1.10;;
33987;SDS011;37428;53.580;-1.666;2023-02-18T17:48:29;7.93;;;1.50;;
33987;SDS011;37428;53.580;-1.666;2023-02-18T17:51:31;7.68;;;1.55;;
33987;SDS011;37428;53.580;-1.666;2023-02-18T17:54:37;3.63;;;1.20;;
33987;SDS011;37428;53.580;-1.666;2023-02-18T17:57:39;8.88;;;2.47;;
33987;SDS011;37428;53.580;-1.666;2023-02-18T18:00:44;7.88;;;1.98;;
33987;SDS011;37428;53.580;-1.666;2023-02-18T18:03:49;5.72;;;1.70;;
33987;SDS011;37428;53.580;-1.666;2023-02-18T18:06:51;5.47;;;1.30;;
33987;SDS011;37428;53.580;-1.666;2023-02-18T18:09:56;5.47;;;1.35;;
33987;SDS011;37428;53.580;-1.666;2023-02-18T18:12:59;5.13;;;1.02;;
33987;SDS011;37428;53.580;-1.666;2023-02-18T18:16:03;4.63;;;1.38;;
33987;SDS011;37428;53.580;-1.666;2023-02-18T18:19:05;7.82;;;1.92;;
33987;SDS011;37428;53.580;-1.666;2023-02-18T18:22:09;6.68;;;1.17;;
33987;SDS011;37428;53.580;-1.666;2023-02-18T18:25:18;7.47;;;1.38;;
33987;SDS011;37428;53.580;-1.666;2023-02-18T18:28:23;6.82;;;1.30;;
33987;SDS011;37428;53.580;-1.666;2023-02-18T18:31:26;3.42;;;1.20;;
33987;SDS011;37428;53.580;-1.666;2023-02-18T18:34:28;5.55;;;1.17;;
33987;SDS011;37428;53.580;-1.666;2023-02-18T18:37:32;5.97;;;1.48;;
33987;SDS011;37428;53.580;-1.666;2023-02-18T18:40:35;4.28;;;0.80;;
33987;SDS011;37428;53.580;-1.666;2023-02-18T18:43:38;1.67;;;0.75;;
33987;SDS011;37428;53.580;-1.666;2023-02-18T18:46:40;3.03;;;0.90;;
33987;SDS011;37428;53.580;-1.666;2023-02-18T18:49:42;2.40;;;1.13;;
33987;SDS011;37428;53.580;-1.666;2023-02-18T18:52:45;6.07;;;2.25;;